หน้าหลัก
METAR-TAF:

METAR-TAF

ท่าอากาศยาน :

โฮนีอารา, กัวดัลคะแนล, หมู่เกาะโซโลมอน

ละติจูด: 09-25S, ลองจิจูด: 160-03E, ความสูง: 8 ม.

การสังเกตสภาพอากาศปัจจุบัน

รายงานได้ทำขึ้นเมื่อ 2 ชั่วโมงและ 11 นาทีที่แล้ว ณ เวลา 04:00 UTC
ลม 10 นอตจากตะวันออก/ตะวันออกเฉียงเหนือ
อุณหภูมิ 30°C
ความชื้น 79%
ความกดอากาศ 1009 hPa
ทัศนวิสัย 10 กม. หรือมากกว่า
มีเมฆน้อยที่ความสูง 1900 ฟุต
มีเมฆน้อยที่ความสูง 2000 ฟุต, คิวมูโลนิมบัส.
มีเมฆกระจายเป็นบางส่วนที่ความสูง 30000 ฟุต

METAR: AGGH 300400Z 07010KT 9999 FEW019 FEW020CB SCT300 30/26 Q1009

เวลา: 17:11 (06:11 UTC)

การพยากรณ์

รายงานได้ทำขึ้นเมื่อ 6 ชั่วโมงและ 51 นาทีที่แล้ว ณ เวลา 23:20 UTC
การพยากรณ์มีผลตั้งแต่วันที่ 30 ณ เวลา 00 UTC จนถึงวันที่ 30 ณ เวลา 24 UTC
ลม 10 นอตจากตะวันออก/ตะวันออกเฉียงใต้
ทัศนวิสัย: 1012 ม.
มีเมฆน้อยที่ความสูง 1600 ฟุต
มีเมฆกระจายเป็นบางส่วนที่ความสูง 10000 ฟุต

TAF: AGGH 292320Z 3000/3024 11010KT 9999 FEW016 SCT100 T 28 30 30 28 Q 1013 1011 1010 1012 TAF3

สังเกตการณ์สภาพอากาศและพยากรณ์อากาศของสนามบินมากกว่า 4000 แห่ง (รายงาน METAR และ TAF).

สถานีที่ดูได้จะแสดงไว้ด้วยจุดสีเหลืองและสีแดงบนแผนที่.

เลื่อนเมาส์ไปเหนือจุดเพื่อดูชื่อสถานี.

แล้วคลิกเพื่อดูสังเกตการณ์และการพยากรณ์สภาพอากาศ.

ในการเปลี่ยนแผนที่: คลิกที่ปุ่มสีเขียวที่มีกากบาทสีดำเพื่อซูมเข้า; ที่ปุ่มสีเขียวที่มีขีดเพื่อซูมออก; หรือที่ลูกศรสีเขียวเพื่อไปยังแผนที่ที่อยู่ติดกัน.


METAR-TAF: